sensor_id;sensor_type;location;lat;lon;timestamp;P1;P2;P0
80420;PMS5003;69762;54.858;73.420;2023-06-04T00:02:24;35.00;28.50;19.00
80420;PMS5003;69762;54.858;73.420;2023-06-04T00:04:51;32.75;27.75;19.00
80420;PMS5003;69762;54.858;73.420;2023-06-04T00:07:17;34.00;28.25;19.50
80420;PMS5003;69762;54.858;73.420;2023-06-04T00:09:43;33.00;27.75;18.75
80420;PMS5003;69762;54.858;73.420;2023-06-04T00:12:12;31.00;26.75;19.00
80420;PMS5003;69762;54.858;73.420;2023-06-04T00:14:38;31.50;26.75;18.75
80420;PMS5003;69762;54.858;73.420;2023-06-04T00:17:04;32.00;28.00;19.00
80420;PMS5003;69762;54.858;73.420;2023-06-04T00:19:30;33.00;27.50;19.00
80420;PMS5003;69762;54.858;73.420;2023-06-04T00:21:56;35.75;29.50;20.00
80420;PMS5003;69762;54.858;73.420;2023-06-04T00:24:22;34.00;29.00;19.00
80420;PMS5003;69762;54.858;73.420;2023-06-04T00:26:48;32.00;26.75;18.75
80420;PMS5003;69762;54.858;73.420;2023-06-04T00:29:15;31.00;26.00;19.00
80420;PMS5003;69762;54.858;73.420;2023-06-04T00:31:41;33.00;27.00;19.00
80420;PMS5003;69762;54.858;73.420;2023-06-04T00:34:07;33.00;27.00;18.00
80420;PMS5003;69762;54.858;73.420;2023-06-04T00:36:33;28.00;24.00;17.00
80420;PMS5003;69762;54.858;73.420;2023-06-04T00:38:59;25.75;22.75;17.00
80420;PMS5003;69762;54.858;73.420;2023-06-04T00:41:25;23.25;20.25;14.75
80420;PMS5003;69762;54.858;73.420;2023-06-04T00:43:52;25.50;23.00;16.00
80420;PMS5003;69762;54.858;73.420;2023-06-04T00:46:22;26.00;23.00;15.25
80420;PMS5003;69762;54.858;73.420;2023-06-04T00:48:48;24.75;21.75;15.25
80420;PMS5003;69762;54.858;73.420;2023-06-04T00:51:14;26.00;22.50;15.25
80420;PMS5003;69762;54.858;73.420;2023-06-04T00:53:40;22.50;20.00;14.00
80420;PMS5003;69762;54.858;73.420;2023-06-04T00:56:06;24.00;21.50;15.00
80420;PMS5003;69762;54.858;73.420;2023-06-04T00:58:37;25.00;21.00;15.00
80420;PMS5003;69762;54.858;73.420;2023-06-04T01:01:04;23.00;20.00;14.25
80420;PMS5003;69762;54.858;73.420;2023-06-04T01:03:33;22.75;20.25;15.00
80420;PMS5003;69762;54.858;73.420;2023-06-04T01:06:12;24.50;21.75;15.25
80420;PMS5003;69762;54.858;73.420;2023-06-04T01:08:39;23.75;21.00;15.00
80420;PMS5003;69762;54.858;73.420;2023-06-04T01:11:14;24.50;21.00;15.00
80420;PMS5003;69762;54.858;73.420;2023-06-04T01:13:41;20.50;18.50;13.00
80420;PMS5003;69762;54.858;73.420;2023-06-04T01:16:07;22.00;19.00;13.00
80420;PMS5003;69762;54.858;73.420;2023-06-04T01:18:36;21.75;18.00;13.00
80420;PMS5003;69762;54.858;73.420;2023-06-04T01:21:06;22.00;20.00;14.00
80420;PMS5003;69762;54.858;73.420;2023-06-04T01:23:51;20.00;17.50;13.00
80420;PMS5003;69762;54.858;73.420;2023-06-04T01:26:27;20.50;17.75;12.00
80420;PMS5003;69762;54.858;73.420;2023-06-04T01:28:55;18.00;16.00;12.00
80420;PMS5003;69762;54.858;73.420;2023-06-04T01:31:22;19.00;17.00;11.00
80420;PMS5003;69762;54.858;73.420;2023-06-04T01:33:54;18.25;16.00;12.00
80420;PMS5003;69762;54.858;73.420;2023-06-04T01:36:21;19.00;17.00;13.00
80420;PMS5003;69762;54.858;73.420;2023-06-04T01:38:48;21.00;17.00;12.00
80420;PMS5003;69762;54.858;73.420;2023-06-04T01:41:15;21.25;19.00;13.00
80420;PMS5003;69762;54.858;73.420;2023-06-04T01:43:41;21.50;19.50;13.75
80420;PMS5003;69762;54.858;73.420;2023-06-04T01:46:07;22.00;20.00;13.50
80420;PMS5003;69762;54.858;73.420;2023-06-04T01:48:33;22.00;20.00;14.00
80420;PMS5003;69762;54.858;73.420;2023-06-04T01:50:59;22.00;19.25;14.75
80420;PMS5003;69762;54.858;73.420;2023-06-04T01:53:26;22.00;20.00;14.00
80420;PMS5003;69762;54.858;73.420;2023-06-04T01:55:52;22.25;20.00;15.00
80420;PMS5003;69762;54.858;73.420;2023-06-04T01:58:19;25.75;23.00;16.00
80420;PMS5003;69762;54.858;73.420;2023-06-04T02:00:53;22.00;19.25;14.25
80420;PMS5003;69762;54.858;73.420;2023-06-04T02:03:21;20.00;19.00;13.00
80420;PMS5003;69762;54.858;73.420;2023-06-04T02:05:48;19.00;18.00;13.00
80420;PMS5003;69762;54.858;73.420;2023-06-04T02:08:14;20.00;18.75;14.00
80420;PMS5003;69762;54.858;73.420;2023-06-04T02:10:48;22.00;19.00;13.00
80420;PMS5003;69762;54.858;73.420;2023-06-04T02:13:14;19.75;17.00;13.00
80420;PMS5003;69762;54.858;73.420;2023-06-04T02:15:40;20.00;18.00;13.00
80420;PMS5003;69762;54.858;73.420;2023-06-04T02:20:47;17.00;16.00;11.00
80420;PMS5003;69762;54.858;73.420;2023-06-04T02:23:14;20.00;18.00;12.25
80420;PMS5003;69762;54.858;73.420;2023-06-04T02:25:41;20.00;17.00;12.00
80420;PMS5003;69762;54.858;73.420;2023-06-04T02:28:10;22.75;19.00;12.00
80420;PMS5003;69762;54.858;73.420;2023-06-04T02:30:36;18.25;15.00;12.00
80420;PMS5003;69762;54.858;73.420;2023-06-04T02:33:02;19.25;17.25;13.00
80420;PMS5003;69762;54.858;73.420;2023-06-04T02:35:30;18.00;16.00;12.00
80420;PMS5003;69762;54.858;73.420;2023-06-04T02:37:56;18.25;17.00;11.50
80420;PMS5003;69762;54.858;73.420;2023-06-04T02:40:27;16.25;15.00;11.00
80420;PMS5003;69762;54.858;73.420;2023-06-04T02:42:54;17.00;16.00;11.00
80420;PMS5003;69762;54.858;73.420;2023-06-04T02:45:22;17.00;15.00;10.00
80420;PMS5003;69762;54.858;73.420;2023-06-04T02:47:48;18.75;16.50;12.00
80420;PMS5003;69762;54.858;73.420;2023-06-04T02:50:14;19.00;16.00;11.75
80420;PMS5003;69762;54.858;73.420;2023-06-04T02:52:44;19.00;17.00;11.25
80420;PMS5003;69762;54.858;73.420;2023-06-04T02:55:10;16.75;15.50;11.00
80420;PMS5003;69762;54.858;73.420;2023-06-04T02:57:39;18.00;16.00;11.00
80420;PMS5003;69762;54.858;73.420;2023-06-04T03:00:06;17.50;16.00;11.00
80420;PMS5003;69762;54.858;73.420;2023-06-04T03:02:41;17.00;15.00;11.00
80420;PMS5003;69762;54.858;73.420;2023-06-04T03:05:09;16.00;14.00;11.00
80420;PMS5003;69762;54.858;73.420;2023-06-04T03:07:37;19.00;16.50;12.00
80420;PMS5003;69762;54.858;73.420;2023-06-04T03:10:03;18.00;16.00;11.00
80420;PMS5003;69762;54.858;73.420;2023-06-04T03:12:31;19.00;18.00;13.00
80420;PMS5003;69762;54.858;73.420;2023-06-04T03:14:57;19.00;17.00;11.50
80420;PMS5003;69762;54.858;73.420;2023-06-04T03:17:23;16.50;14.75;10.75
80420;PMS5003;69762;54.858;73.420;2023-06-04T03:19:49;17.50;15.00;11.00
80420;PMS5003;69762;54.858;73.420;2023-06-04T03:22:16;18.75;16.75;11.00
80420;PMS5003;69762;54.858;73.420;2023-06-04T03:24:42;17.00;16.00;11.00
80420;PMS5003;69762;54.858;73.420;2023-06-04T03:27:09;19.00;17.00;12.00
80420;PMS5003;69762;54.858;73.420;2023-06-04T03:29:36;18.00;15.75;11.00
80420;PMS5003;69762;54.858;73.420;2023-06-04T03:32:04;18.00;15.00;10.75
80420;PMS5003;69762;54.858;73.420;2023-06-04T03:34:31;16.25;15.00;12.00
80420;PMS5003;69762;54.858;73.420;2023-06-04T03:36:58;15.75;14.00;11.00
80420;PMS5003;69762;54.858;73.420;2023-06-04T03:39:26;16.00;14.00;11.00
80420;PMS5003;69762;54.858;73.420;2023-06-04T03:41:53;17.00;15.00;11.00
80420;PMS5003;69762;54.858;73.420;2023-06-04T03:44:21;15.75;14.00;10.00
80420;PMS5003;69762;54.858;73.420;2023-06-04T03:46:48;17.00;14.25;11.00
80420;PMS5003;69762;54.858;73.420;2023-06-04T03:49:14;17.75;16.00;11.00
80420;PMS5003;69762;54.858;73.420;2023-06-04T03:51:44;18.00;16.00;12.00
80420;PMS5003;69762;54.858;73.420;2023-06-04T03:54:11;21.00;18.50;12.75
80420;PMS5003;69762;54.858;73.420;2023-06-04T03:56:38;18.00;16.00;12.00
80420;PMS5003;69762;54.858;73.420;2023-06-04T03:59:07;20.00;18.00;12.00
80420;PMS5003;69762;54.858;73.420;2023-06-04T04:01:33;21.00;18.00;13.00
80420;PMS5003;69762;54.858;73.420;2023-06-04T04:03:59;18.00;17.00;12.00
80420;PMS5003;69762;54.858;73.420;2023-06-04T04:06:26;21.00;18.75;13.50
80420;PMS5003;69762;54.858;73.420;2023-06-04T04:08:53;20.00;18.75;13.00
80420;PMS5003;69762;54.858;73.420;2023-06-04T04:11:20;21.00;19.00;13.00
80420;PMS5003;69762;54.858;73.420;2023-06-04T04:13:47;20.00;18.00;14.00
80420;PMS5003;69762;54.858;73.420;2023-06-04T04:16:14;19.25;17.25;11.75
80420;PMS5003;69762;54.858;73.420;2023-06-04T04:18:43;20.00;17.25;12.25
80420;PMS5003;69762;54.858;73.420;2023-06-04T04:21:10;19.25;17.75;13.00
80420;PMS5003;69762;54.858;73.420;2023-06-04T04:23:38;19.50;18.25;13.00
80420;PMS5003;69762;54.858;73.420;2023-06-04T04:26:07;21.00;19.00;14.00
80420;PMS5003;69762;54.858;73.420;2023-06-04T04:28:36;20.00;19.00;13.00
80420;PMS5003;69762;54.858;73.420;2023-06-04T04:31:03;21.00;19.00;13.00
80420;PMS5003;69762;54.858;73.420;2023-06-04T04:33:32;22.00;19.00;13.00
80420;PMS5003;69762;54.858;73.420;2023-06-04T04:36:05;20.00;17.75;12.00
80420;PMS5003;69762;54.858;73.420;2023-06-04T04:38:31;19.00;16.00;12.00
80420;PMS5003;69762;54.858;73.420;2023-06-04T04:41:03;19.00;16.00;12.00
80420;PMS5003;69762;54.858;73.420;2023-06-04T04:43:34;18.00;17.00;13.00
80420;PMS5003;69762;54.858;73.420;2023-06-04T04:46:14;16.50;15.50;12.00
80420;PMS5003;69762;54.858;73.420;2023-06-04T04:48:40;19.00;17.00;12.00
80420;PMS5003;69762;54.858;73.420;2023-06-04T04:51:08;17.00;16.00;11.00
80420;PMS5003;69762;54.858;73.420;2023-06-04T04:53:36;15.50;13.75;10.50
80420;PMS5003;69762;54.858;73.420;2023-06-04T04:56:03;17.00;15.00;11.00
80420;PMS5003;69762;54.858;73.420;2023-06-04T04:58:31;17.00;15.00;11.00
80420;PMS5003;69762;54.858;73.420;2023-06-04T05:00:57;15.00;14.00;10.00
80420;PMS5003;69762;54.858;73.420;2023-06-04T05:03:23;16.00;14.25;10.75
80420;PMS5003;69762;54.858;73.420;2023-06-04T05:06:01;13.50;12.50;9.50
80420;PMS5003;69762;54.858;73.420;2023-06-04T05:08:27;16.00;14.00;11.00
80420;PMS5003;69762;54.858;73.420;2023-06-04T05:10:54;15.00;13.50;10.00
80420;PMS5003;69762;54.858;73.420;2023-06-04T05:13:20;14.75;14.00;10.00
80420;PMS5003;69762;54.858;73.420;2023-06-04T05:15:52;13.75;13.25;10.00
80420;PMS5003;69762;54.858;73.420;2023-06-04T05:18:21;14.00;13.00;10.00
80420;PMS5003;69762;54.858;73.420;2023-06-04T05:20:49;15.00;13.00;9.00
80420;PMS5003;69762;54.858;73.420;2023-06-04T05:23:15;15.00;13.00;10.00
80420;PMS5003;69762;54.858;73.420;2023-06-04T05:25:44;14.00;13.00;10.00
80420;PMS5003;69762;54.858;73.420;2023-06-04T05:28:11;13.00;12.00;9.00
80420;PMS5003;69762;54.858;73.420;2023-06-04T05:30:39;12.75;11.50;8.50
80420;PMS5003;69762;54.858;73.420;2023-06-04T05:33:08;14.25;13.00;9.00
80420;PMS5003;69762;54.858;73.420;2023-06-04T05:35:47;12.75;12.00;9.00
80420;PMS5003;69762;54.858;73.420;2023-06-04T05:38:20;12.50;11.00;9.00
80420;PMS5003;69762;54.858;73.420;2023-06-04T05:40:55;15.00;13.50;10.00
80420;PMS5003;69762;54.858;73.420;2023-06-04T05:43:22;15.00;13.50;10.00
80420;PMS5003;69762;54.858;73.420;2023-06-04T05:45:49;15.00;13.00;9.50
80420;PMS5003;69762;54.858;73.420;2023-06-04T05:48:17;15.00;13.00;9.00
80420;PMS5003;69762;54.858;73.420;2023-06-04T05:50:43;15.00;13.00;9.00
80420;PMS5003;69762;54.858;73.420;2023-06-04T05:53:09;16.00;14.00;10.00
80420;PMS5003;69762;54.858;73.420;2023-06-04T05:55:36;14.00;13.00;9.00
80420;PMS5003;69762;54.858;73.420;2023-06-04T05:58:02;14.00;13.00;9.00
80420;PMS5003;69762;54.858;73.420;2023-06-04T06:00:29;14.00;13.00;8.00
80420;PMS5003;69762;54.858;73.420;2023-06-04T06:02:55;14.00;13.00;9.00
80420;PMS5003;69762;54.858;73.420;2023-06-04T06:05:34;13.00;12.75;9.00
80420;PMS5003;69762;54.858;73.420;2023-06-04T06:08:01;13.50;12.75;9.00
80420;PMS5003;69762;54.858;73.420;2023-06-04T06:10:28;12.00;12.00;9.00
80420;PMS5003;69762;54.858;73.420;2023-06-04T06:12:54;14.50;13.00;9.00
80420;PMS5003;69762;54.858;73.420;2023-06-04T06:15:21;14.00;12.25;10.00
80420;PMS5003;69762;54.858;73.420;2023-06-04T06:17:50;12.50;11.25;8.50
80420;PMS5003;69762;54.858;73.420;2023-06-04T06:20:17;11.25;11.00;8.00
80420;PMS5003;69762;54.858;73.420;2023-06-04T06:22:45;13.00;12.00;9.00
80420;PMS5003;69762;54.858;73.420;2023-06-04T06:25:13;12.50;11.00;8.00
80420;PMS5003;69762;54.858;73.420;2023-06-04T06:27:47;12.00;11.00;8.00
80420;PMS5003;69762;54.858;73.420;2023-06-04T06:30:16;12.50;12.00;8.00
80420;PMS5003;69762;54.858;73.420;2023-06-04T06:32:43;13.00;11.50;8.00
80420;PMS5003;69762;54.858;73.420;2023-06-04T06:35:09;12.00;11.00;8.00
80420;PMS5003;69762;54.858;73.420;2023-06-04T06:37:35;12.00;11.00;9.00
80420;PMS5003;69762;54.858;73.420;2023-06-04T06:40:01;11.00;10.75;7.75
80420;PMS5003;69762;54.858;73.420;2023-06-04T06:42:32;12.00;11.00;8.00
80420;PMS5003;69762;54.858;73.420;2023-06-04T06:44:58;12.00;12.00;9.00
80420;PMS5003;69762;54.858;73.420;2023-06-04T06:47:24;14.25;13.25;10.00
80420;PMS5003;69762;54.858;73.420;2023-06-04T06:49:50;13.00;11.75;8.75
80420;PMS5003;69762;54.858;73.420;2023-06-04T06:52:17;12.00;11.00;8.00
80420;PMS5003;69762;54.858;73.420;2023-06-04T06:54:45;13.00;12.00;8.00
80420;PMS5003;69762;54.858;73.420;2023-06-04T06:57:12;18.75;17.00;13.00
80420;PMS5003;69762;54.858;73.420;2023-06-04T06:59:38;12.25;11.00;8.00
80420;PMS5003;69762;54.858;73.420;2023-06-04T07:02:05;12.00;12.00;9.00
80420;PMS5003;69762;54.858;73.420;2023-06-04T07:04:31;45.75;39.00;29.75
80420;PMS5003;69762;54.858;73.420;2023-06-04T07:06:57;34.75;30.25;22.75
80420;PMS5003;69762;54.858;73.420;2023-06-04T07:09:23;12.00;11.00;8.00
80420;PMS5003;69762;54.858;73.420;2023-06-04T07:11:49;21.50;19.75;15.00
80420;PMS5003;69762;54.858;73.420;2023-06-04T07:14:15;11.00;11.00;8.00
80420;PMS5003;69762;54.858;73.420;2023-06-04T07:16:41;13.00;12.00;10.00
80420;PMS5003;69762;54.858;73.420;2023-06-04T07:19:08;17.75;16.75;14.00
80420;PMS5003;69762;54.858;73.420;2023-06-04T07:21:34;22.75;21.25;17.00
80420;PMS5003;69762;54.858;73.420;2023-06-04T07:24:00;12.00;11.00;8.00
80420;PMS5003;69762;54.858;73.420;2023-06-04T07:26:26;13.00;12.00;9.00
80420;PMS5003;69762;54.858;73.420;2023-06-04T07:28:57;13.00;12.00;8.00
80420;PMS5003;69762;54.858;73.420;2023-06-04T07:31:23;23.75;22.00;17.25
80420;PMS5003;69762;54.858;73.420;2023-06-04T07:33:49;15.00;14.00;10.00
80420;PMS5003;69762;54.858;73.420;2023-06-04T07:36:15;13.50;13.00;10.00
80420;PMS5003;69762;54.858;73.420;2023-06-04T07:38:42;14.00;13.00;10.00
80420;PMS5003;69762;54.858;73.420;2023-06-04T07:41:08;11.00;10.50;8.00
80420;PMS5003;69762;54.858;73.420;2023-06-04T07:43:35;15.75;14.75;12.00
80420;PMS5003;69762;54.858;73.420;2023-06-04T07:46:01;13.00;12.00;8.00
80420;PMS5003;69762;54.858;73.420;2023-06-04T07:48:28;21.25;19.50;14.75
80420;PMS5003;69762;54.858;73.420;2023-06-04T07:50:57;14.00;13.00;10.00
80420;PMS5003;69762;54.858;73.420;2023-06-04T07:53:23;14.25;13.00;10.00
80420;PMS5003;69762;54.858;73.420;2023-06-04T07:55:49;13.00;12.00;9.25
80420;PMS5003;69762;54.858;73.420;2023-06-04T07:58:16;11.00;10.00;6.00
80420;PMS5003;69762;54.858;73.420;2023-06-04T08:00:42;12.00;11.00;9.00
80420;PMS5003;69762;54.858;73.420;2023-06-04T08:03:08;11.00;10.00;8.00
80420;PMS5003;69762;54.858;73.420;2023-06-04T08:05:34;12.00;11.00;8.00
80420;PMS5003;69762;54.858;73.420;2023-06-04T08:08:00;13.00;12.00;10.00
80420;PMS5003;69762;54.858;73.420;2023-06-04T08:10:27;12.00;11.00;8.00
80420;PMS5003;69762;54.858;73.420;2023-06-04T08:12:54;60.00;50.00;39.00
80420;PMS5003;69762;54.858;73.420;2023-06-04T08:15:20;28.50;25.75;20.50
80420;PMS5003;69762;54.858;73.420;2023-06-04T08:18:06;13.50;12.00;9.00
80420;PMS5003;69762;54.858;73.420;2023-06-04T08:20:39;12.00;11.00;8.00
80420;PMS5003;69762;54.858;73.420;2023-06-04T08:23:24;12.00;11.00;8.00
80420;PMS5003;69762;54.858;73.420;2023-06-04T08:26:10;13.00;12.00;8.25
80420;PMS5003;69762;54.858;73.420;2023-06-04T08:28:48;34.00;30.00;23.00
80420;PMS5003;69762;54.858;73.420;2023-06-04T08:31:25;20.50;19.00;15.25
80420;PMS5003;69762;54.858;73.420;2023-06-04T08:34:06;19.25;18.25;13.75
80420;PMS5003;69762;54.858;73.420;2023-06-04T08:36:35;14.25;13.00;9.00
80420;PMS5003;69762;54.858;73.420;2023-06-04T08:39:02;13.00;12.00;9.00
80420;PMS5003;69762;54.858;73.420;2023-06-04T08:41:29;13.00;12.00;10.00
80420;PMS5003;69762;54.858;73.420;2023-06-04T08:43:56;14.00;13.00;10.00
80420;PMS5003;69762;54.858;73.420;2023-06-04T08:46:23;15.00;13.50;9.50
80420;PMS5003;69762;54.858;73.420;2023-06-04T08:48:49;13.25;12.25;9.00
80420;PMS5003;69762;54.858;73.420;2023-06-04T08:51:16;12.50;11.25;8.00
80420;PMS5003;69762;54.858;73.420;2023-06-04T08:53:42;14.00;13.00;9.00
80420;PMS5003;69762;54.858;73.420;2023-06-04T08:56:09;12.00;11.00;9.00
80420;PMS5003;69762;54.858;73.420;2023-06-04T08:58:35;11.00;11.00;8.00
80420;PMS5003;69762;54.858;73.420;2023-06-04T09:01:02;12.00;11.00;8.00
80420;PMS5003;69762;54.858;73.420;2023-06-04T09:03:39;12.50;11.25;9.00
80420;PMS5003;69762;54.858;73.420;2023-06-04T09:06:05;12.00;11.00;8.50
80420;PMS5003;69762;54.858;73.420;2023-06-04T09:08:31;13.00;12.00;10.00
80420;PMS5003;69762;54.858;73.420;2023-06-04T09:11:03;12.25;12.00;8.50
80420;PMS5003;69762;54.858;73.420;2023-06-04T09:13:31;13.00;12.00;9.00
80420;PMS5003;69762;54.858;73.420;2023-06-04T09:16:01;15.00;13.00;10.00
80420;PMS5003;69762;54.858;73.420;2023-06-04T09:18:28;14.00;13.00;10.00
80420;PMS5003;69762;54.858;73.420;2023-06-04T09:21:01;18.00;17.00;12.75
80420;PMS5003;69762;54.858;73.420;2023-06-04T09:23:29;12.00;11.00;9.00
80420;PMS5003;69762;54.858;73.420;2023-06-04T09:25:56;13.00;12.00;9.00
80420;PMS5003;69762;54.858;73.420;2023-06-04T09:28:22;13.00;13.00;9.00
80420;PMS5003;69762;54.858;73.420;2023-06-04T09:30:52;12.00;11.00;8.00
80420;PMS5003;69762;54.858;73.420;2023-06-04T09:33:19;13.00;12.00;9.00
80420;PMS5003;69762;54.858;73.420;2023-06-04T09:35:56;15.00;14.00;10.00
80420;PMS5003;69762;54.858;73.420;2023-06-04T09:38:36;14.00;13.00;9.25
80420;PMS5003;69762;54.858;73.420;2023-06-04T09:41:14;13.00;12.00;8.00
80420;PMS5003;69762;54.858;73.420;2023-06-04T09:43:41;13.00;12.00;8.50
80420;PMS5003;69762;54.858;73.420;2023-06-04T09:46:16;12.00;12.00;9.00
80420;PMS5003;69762;54.858;73.420;2023-06-04T09:48:58;13.25;12.75;9.00
80420;PMS5003;69762;54.858;73.420;2023-06-04T09:51:27;12.00;11.00;8.00
80420;PMS5003;69762;54.858;73.420;2023-06-04T09:53:59;14.00;13.00;10.00
80420;PMS5003;69762;54.858;73.420;2023-06-04T09:56:28;13.50;12.00;10.00
80420;PMS5003;69762;54.858;73.420;2023-06-04T09:59:25;12.00;12.00;9.00
80420;PMS5003;69762;54.858;73.420;2023-06-04T10:01:53;14.00;13.00;10.00
80420;PMS5003;69762;54.858;73.420;2023-06-04T10:04:21;13.50;12.00;9.00
80420;PMS5003;69762;54.858;73.420;2023-06-04T10:06:47;17.00;15.75;11.00
80420;PMS5003;69762;54.858;73.420;2023-06-04T10:09:14;16.00;14.00;10.00
80420;PMS5003;69762;54.858;73.420;2023-06-04T10:12:01;15.00;14.00;10.00
80420;PMS5003;69762;54.858;73.420;2023-06-04T10:14:31;18.00;16.25;12.00
80420;PMS5003;69762;54.858;73.420;2023-06-04T10:17:01;16.00;15.00;11.00
80420;PMS5003;69762;54.858;73.420;2023-06-04T10:19:29;17.00;15.25;11.00
80420;PMS5003;69762;54.858;73.420;2023-06-04T10:21:56;14.00;13.00;9.00
80420;PMS5003;69762;54.858;73.420;2023-06-04T10:24:22;12.00;12.00;9.00
80420;PMS5003;69762;54.858;73.420;2023-06-04T10:26:57;14.00;13.00;10.50
80420;PMS5003;69762;54.858;73.420;2023-06-04T10:29:38;16.00;13.75;9.00
80420;PMS5003;69762;54.858;73.420;2023-06-04T10:32:04;12.25;11.75;9.50
80420;PMS5003;69762;54.858;73.420;2023-06-04T10:34:30;15.00;13.50;10.00
80420;PMS5003;69762;54.858;73.420;2023-06-04T10:36:57;13.00;12.00;9.75
80420;PMS5003;69762;54.858;73.420;2023-06-04T10:39:31;13.00;13.00;9.00
80420;PMS5003;69762;54.858;73.420;2023-06-04T10:41:59;13.00;12.00;9.25
80420;PMS5003;69762;54.858;73.420;2023-06-04T10:44:26;15.50;14.25;11.00
80420;PMS5003;69762;54.858;73.420;2023-06-04T10:46:52;15.00;14.00;11.00
80420;PMS5003;69762;54.858;73.420;2023-06-04T10:49:29;13.00;12.00;9.00
80420;PMS5003;69762;54.858;73.420;2023-06-04T10:51:55;13.00;12.00;9.00
80420;PMS5003;69762;54.858;73.420;2023-06-04T10:54:22;12.00;11.00;9.00
80420;PMS5003;69762;54.858;73.420;2023-06-04T10:56:50;13.25;13.00;10.00
80420;PMS5003;69762;54.858;73.420;2023-06-04T10:59:17;15.00;13.00;9.00
80420;PMS5003;69762;54.858;73.420;2023-06-04T11:01:44;13.50;13.00;9.00
80420;PMS5003;69762;54.858;73.420;2023-06-04T11:04:21;12.00;11.00;8.00
80420;PMS5003;69762;54.858;73.420;2023-06-04T11:06:47;16.00;14.00;10.00
80420;PMS5003;69762;54.858;73.420;2023-06-04T11:09:14;14.00;13.00;10.00
80420;PMS5003;69762;54.858;73.420;2023-06-04T11:11:43;14.00;13.00;10.00
80420;PMS5003;69762;54.858;73.420;2023-06-04T11:14:10;14.25;14.00;10.00
80420;PMS5003;69762;54.858;73.420;2023-06-04T11:16:38;16.00;15.00;11.00
80420;PMS5003;69762;54.858;73.420;2023-06-04T11:19:05;16.00;14.00;10.00
80420;PMS5003;69762;54.858;73.420;2023-06-04T11:21:33;14.75;14.00;11.00
80420;PMS5003;69762;54.858;73.420;2023-06-04T11:24:00;16.25;15.50;12.00
80420;PMS5003;69762;54.858;73.420;2023-06-04T11:26:36;17.00;16.00;11.00
80420;PMS5003;69762;54.858;73.420;2023-06-04T11:29:05;16.00;16.00;12.00
80420;PMS5003;69762;54.858;73.420;2023-06-04T11:31:46;13.25;12.00;8.50
80420;PMS5003;69762;54.858;73.420;2023-06-04T11:34:23;14.00;13.00;10.00
80420;PMS5003;69762;54.858;73.420;2023-06-04T11:36:50;17.00;15.75;11.75
80420;PMS5003;69762;54.858;73.420;2023-06-04T11:42:47;14.75;14.00;10.50
80420;PMS5003;69762;54.858;73.420;2023-06-04T11:45:14;13.00;12.00;10.00
80420;PMS5003;69762;54.858;73.420;2023-06-04T11:47:47;14.50;13.25;10.00
80420;PMS5003;69762;54.858;73.420;2023-06-04T11:50:14;12.25;12.00;9.00
80420;PMS5003;69762;54.858;73.420;2023-06-04T11:52:44;14.00;13.00;10.00
80420;PMS5003;69762;54.858;73.420;2023-06-04T11:55:13;13.75;13.00;9.25
80420;PMS5003;69762;54.858;73.420;2023-06-04T11:57:40;13.00;12.00;10.00
80420;PMS5003;69762;54.858;73.420;2023-06-04T12:00:07;13.50;12.25;9.00
80420;PMS5003;69762;54.858;73.420;2023-06-04T12:02:54;15.75;14.00;11.00
80420;PMS5003;69762;54.858;73.420;2023-06-04T12:05:22;14.00;14.00;10.00
80420;PMS5003;69762;54.858;73.420;2023-06-04T12:07:51;13.00;13.00;9.75
80420;PMS5003;69762;54.858;73.420;2023-06-04T12:10:18;14.00;13.00;10.00
80420;PMS5003;69762;54.858;73.420;2023-06-04T12:12:45;13.00;12.00;10.00
80420;PMS5003;69762;54.858;73.420;2023-06-04T12:15:12;13.50;12.50;9.25
80420;PMS5003;69762;54.858;73.420;2023-06-04T12:17:51;12.50;12.00;10.00
80420;PMS5003;69762;54.858;73.420;2023-06-04T12:20:18;15.00;14.00;11.00
80420;PMS5003;69762;54.858;73.420;2023-06-04T12:22:45;12.25;12.00;9.25
80420;PMS5003;69762;54.858;73.420;2023-06-04T12:25:22;13.00;12.00;8.75
80420;PMS5003;69762;54.858;73.420;2023-06-04T12:27:50;12.00;11.00;8.75
80420;PMS5003;69762;54.858;73.420;2023-06-04T12:30:16;13.00;12.00;9.00
80420;PMS5003;69762;54.858;73.420;2023-06-04T12:32:42;12.00;12.00;8.00
80420;PMS5003;69762;54.858;73.420;2023-06-04T12:35:08;13.00;12.00;9.00
80420;PMS5003;69762;54.858;73.420;2023-06-04T12:37:34;13.00;12.00;9.00
80420;PMS5003;69762;54.858;73.420;2023-06-04T12:40:02;13.00;12.00;10.00
80420;PMS5003;69762;54.858;73.420;2023-06-04T12:42:29;14.00;13.00;9.00
80420;PMS5003;69762;54.858;73.420;2023-06-04T12:44:56;14.00;13.00;10.00
80420;PMS5003;69762;54.858;73.420;2023-06-04T12:47:22;16.00;14.00;11.00
80420;PMS5003;69762;54.858;73.420;2023-06-04T12:49:48;14.25;13.00;10.00
80420;PMS5003;69762;54.858;73.420;2023-06-04T12:52:14;12.00;12.00;9.00
80420;PMS5003;69762;54.858;73.420;2023-06-04T12:54:44;14.75;13.00;10.00
80420;PMS5003;69762;54.858;73.420;2023-06-04T12:57:10;14.00;12.00;9.00
80420;PMS5003;69762;54.858;73.420;2023-06-04T12:59:37;14.00;12.00;9.75
80420;PMS5003;69762;54.858;73.420;2023-06-04T13:02:03;17.00;16.00;12.00
80420;PMS5003;69762;54.858;73.420;2023-06-04T13:04:29;17.00;16.00;13.00
80420;PMS5003;69762;54.858;73.420;2023-06-04T13:06:55;17.00;17.00;13.00
80420;PMS5003;69762;54.858;73.420;2023-06-04T13:09:24;20.00;19.00;14.00
80420;PMS5003;69762;54.858;73.420;2023-06-04T13:11:53;18.00;18.00;14.75
80420;PMS5003;69762;54.858;73.420;2023-06-04T13:14:19;17.00;16.00;11.00
80420;PMS5003;69762;54.858;73.420;2023-06-04T13:16:45;22.00;20.00;13.00
80420;PMS5003;69762;54.858;73.420;2023-06-04T13:19:15;44.25;35.00;21.00
80420;PMS5003;69762;54.858;73.420;2023-06-04T13:21:41;57.00;45.00;28.00
80420;PMS5003;69762;54.858;73.420;2023-06-04T13:24:09;32.00;28.00;19.00
80420;PMS5003;69762;54.858;73.420;2023-06-04T13:26:36;27.00;24.00;18.00
80420;PMS5003;69762;54.858;73.420;2023-06-04T13:29:04;22.00;19.00;13.00
80420;PMS5003;69762;54.858;73.420;2023-06-04T13:31:31;16.00;15.00;10.25
80420;PMS5003;69762;54.858;73.420;2023-06-04T13:33:57;17.50;16.00;12.00
80420;PMS5003;69762;54.858;73.420;2023-06-04T13:36:23;20.00;18.00;14.00
80420;PMS5003;69762;54.858;73.420;2023-06-04T13:38:51;19.00;18.00;14.00
80420;PMS5003;69762;54.858;73.420;2023-06-04T13:41:22;24.00;21.00;15.00
80420;PMS5003;69762;54.858;73.420;2023-06-04T13:43:48;23.00;21.50;17.00
80420;PMS5003;69762;54.858;73.420;2023-06-04T13:46:14;21.00;19.75;15.00
80420;PMS5003;69762;54.858;73.420;2023-06-04T13:48:42;24.00;22.00;16.00
80420;PMS5003;69762;54.858;73.420;2023-06-04T13:51:08;27.00;24.00;16.50
80420;PMS5003;69762;54.858;73.420;2023-06-04T13:53:34;27.50;24.00;17.00